sensor_id;sensor_type;location;lat;lon;timestamp;P1;durP1;ratioP1;P2;durP2;ratioP2
38557;SDS011;24333;42.626;23.308;2023-04-03T00:26:24;1.10;;;0.85;;
38557;SDS011;24333;42.626;23.308;2023-04-03T00:28:52;1.33;;;0.68;;
38557;SDS011;24333;42.626;23.308;2023-04-03T00:31:21;0.73;;;0.57;;
38557;SDS011;24333;42.626;23.308;2023-04-03T00:58:54;1.67;;;0.70;;
38557;SDS011;24333;42.626;23.308;2023-04-03T01:01:25;0.75;;;0.68;;
38557;SDS011;24333;42.626;23.308;2023-04-03T01:10:39;2.25;;;0.80;;
38557;SDS011;24333;42.626;23.308;2023-04-03T01:13:25;0.93;;;0.60;;
38557;SDS011;24333;42.626;23.308;2023-04-03T01:15:55;0.60;;;0.60;;
38557;SDS011;24333;42.626;23.308;2023-04-03T01:18:25;1.58;;;0.80;;
38557;SDS011;24333;42.626;23.308;2023-04-03T01:27:27;3.40;;;0.90;;
38557;SDS011;24333;42.626;23.308;2023-04-03T01:30:33;0.85;;;0.68;;
38557;SDS011;24333;42.626;23.308;2023-04-03T02:36:28;1.55;;;0.80;;
38557;SDS011;24333;42.626;23.308;2023-04-03T02:38:53;1.00;;;0.80;;
38557;SDS011;24333;42.626;23.308;2023-04-03T02:41:19;0.95;;;0.60;;
38557;SDS011;24333;42.626;23.308;2023-04-03T02:43:46;0.98;;;0.68;;
38557;SDS011;24333;42.626;23.308;2023-04-03T02:46:11;1.15;;;0.80;;
38557;SDS011;24333;42.626;23.308;2023-04-03T02:48:39;0.90;;;0.70;;
38557;SDS011;24333;42.626;23.308;2023-04-03T03:24:46;1.52;;;0.90;;
38557;SDS011;24333;42.626;23.308;2023-04-03T03:27:32;1.38;;;1.00;;
38557;SDS011;24333;42.626;23.308;2023-04-03T03:52:55;1.65;;;1.15;;
38557;SDS011;24333;42.626;23.308;2023-04-03T03:55:21;1.48;;;0.80;;
38557;SDS011;24333;42.626;23.308;2023-04-03T03:58:06;1.52;;;0.90;;
38557;SDS011;24333;42.626;23.308;2023-04-03T04:07:06;1.15;;;1.02;;
38557;SDS011;24333;42.626;23.308;2023-04-03T04:09:32;2.05;;;0.82;;
38557;SDS011;24333;42.626;23.308;2023-04-03T04:43:48;3.53;;;1.00;;
38557;SDS011;24333;42.626;23.308;2023-04-03T04:46:15;1.83;;;0.95;;
38557;SDS011;24333;42.626;23.308;2023-04-03T04:51:51;2.20;;;0.98;;
38557;SDS011;24333;42.626;23.308;2023-04-03T04:54:22;1.90;;;1.13;;
38557;SDS011;24333;42.626;23.308;2023-04-03T04:56:51;3.03;;;1.05;;
38557;SDS011;24333;42.626;23.308;2023-04-03T07:19:34;17.42;;;6.72;;
38557;SDS011;24333;42.626;23.308;2023-04-03T07:22:00;17.40;;;6.30;;
38557;SDS011;24333;42.626;23.308;2023-04-03T07:24:25;16.70;;;6.25;;
38557;SDS011;24333;42.626;23.308;2023-04-03T07:26:54;21.67;;;7.40;;
38557;SDS011;24333;42.626;23.308;2023-04-03T07:29:19;21.15;;;6.88;;
38557;SDS011;24333;42.626;23.308;2023-04-03T07:36:58;17.60;;;6.65;;
38557;SDS011;24333;42.626;23.308;2023-04-03T07:39:24;25.27;;;6.70;;
38557;SDS011;24333;42.626;23.308;2023-04-03T08:34:56;37.13;;;13.25;;
38557;SDS011;24333;42.626;23.308;2023-04-03T08:37:27;21.02;;;6.95;;
38557;SDS011;24333;42.626;23.308;2023-04-03T08:47:46;23.10;;;7.18;;
38557;SDS011;24333;42.626;23.308;2023-04-03T08:50:31;25.27;;;7.85;;
38557;SDS011;24333;42.626;23.308;2023-04-03T08:53:04;22.25;;;8.80;;
38557;SDS011;24333;42.626;23.308;2023-04-03T08:55:39;35.63;;;10.88;;
38557;SDS011;24333;42.626;23.308;2023-04-03T08:58:15;20.55;;;9.27;;
38557;SDS011;24333;42.626;23.308;2023-04-03T09:04:24;11.55;;;4.72;;
38557;SDS011;24333;42.626;23.308;2023-04-03T09:06:54;6.63;;;2.63;;
38557;SDS011;24333;42.626;23.308;2023-04-03T09:09:36;4.10;;;1.85;;
38557;SDS011;24333;42.626;23.308;2023-04-03T09:22:31;2.67;;;0.80;;
38557;SDS011;24333;42.626;23.308;2023-04-03T09:25:00;3.35;;;1.58;;
38557;SDS011;24333;42.626;23.308;2023-04-03T09:27:38;8.00;;;1.77;;
38557;SDS011;24333;42.626;23.308;2023-04-03T09:33:02;2.75;;;0.80;;
38557;SDS011;24333;42.626;23.308;2023-04-03T09:35:38;2.30;;;0.73;;
38557;SDS011;24333;42.626;23.308;2023-04-03T09:58:31;4.10;;;1.42;;
38557;SDS011;24333;42.626;23.308;2023-04-03T10:26:58;2.83;;;1.42;;
38557;SDS011;24333;42.626;23.308;2023-04-03T10:47:42;3.83;;;1.25;;
38557;SDS011;24333;42.626;23.308;2023-04-03T10:52:57;2.50;;;1.17;;
38557;SDS011;24333;42.626;23.308;2023-04-03T10:55:51;1.58;;;0.98;;
38557;SDS011;24333;42.626;23.308;2023-04-03T10:58:52;1.70;;;1.08;;
38557;SDS011;24333;42.626;23.308;2023-04-03T11:14:35;2.22;;;1.08;;
38557;SDS011;24333;42.626;23.308;2023-04-03T11:26:11;3.00;;;1.73;;
38557;SDS011;24333;42.626;23.308;2023-04-03T11:37:05;3.88;;;2.00;;
38557;SDS011;24333;42.626;23.308;2023-04-03T11:40:06;3.05;;;1.98;;
38557;SDS011;24333;42.626;23.308;2023-04-03T12:02:35;6.32;;;3.40;;
38557;SDS011;24333;42.626;23.308;2023-04-03T12:11:29;7.95;;;3.65;;
38557;SDS011;24333;42.626;23.308;2023-04-03T12:17:25;12.82;;;4.25;;
38557;SDS011;24333;42.626;23.308;2023-04-03T12:19:52;8.27;;;3.97;;
38557;SDS011;24333;42.626;23.308;2023-04-03T12:22:19;5.28;;;2.90;;
38557;SDS011;24333;42.626;23.308;2023-04-03T12:24:49;6.07;;;2.03;;
38557;SDS011;24333;42.626;23.308;2023-04-03T13:39:57;5.20;;;2.58;;
38557;SDS011;24333;42.626;23.308;2023-04-03T13:42:25;2.95;;;1.73;;
38557;SDS011;24333;42.626;23.308;2023-04-03T13:45:16;1.80;;;1.17;;
38557;SDS011;24333;42.626;23.308;2023-04-03T13:47:55;1.38;;;1.25;;
38557;SDS011;24333;42.626;23.308;2023-04-03T13:50:49;2.08;;;1.40;;
38557;SDS011;24333;42.626;23.308;2023-04-03T13:53:21;2.05;;;1.40;;
38557;SDS011;24333;42.626;23.308;2023-04-03T13:58:51;3.28;;;1.55;;
38557;SDS011;24333;42.626;23.308;2023-04-03T14:04:16;1.30;;;1.08;;
38557;SDS011;24333;42.626;23.308;2023-04-03T14:06:45;1.92;;;1.42;;
38557;SDS011;24333;42.626;23.308;2023-04-03T14:09:15;1.95;;;1.27;;
38557;SDS011;24333;42.626;23.308;2023-04-03T14:11:42;1.33;;;1.02;;
38557;SDS011;24333;42.626;23.308;2023-04-03T14:14:13;2.08;;;1.33;;
38557;SDS011;24333;42.626;23.308;2023-04-03T14:16:57;2.60;;;1.30;;
38557;SDS011;24333;42.626;23.308;2023-04-03T14:19:31;4.30;;;1.30;;
38557;SDS011;24333;42.626;23.308;2023-04-03T14:24:49;12.13;;;4.90;;
38557;SDS011;24333;42.626;23.308;2023-04-03T14:29:45;10.38;;;5.63;;
38557;SDS011;24333;42.626;23.308;2023-04-03T14:32:14;4.32;;;2.60;;
38557;SDS011;24333;42.626;23.308;2023-04-03T14:40:37;2.45;;;1.42;;
38557;SDS011;24333;42.626;23.308;2023-04-03T14:43:02;4.00;;;2.60;;
38557;SDS011;24333;42.626;23.308;2023-04-03T14:45:28;4.50;;;2.00;;
38557;SDS011;24333;42.626;23.308;2023-04-03T14:47:54;3.25;;;1.88;;
38557;SDS011;24333;42.626;23.308;2023-04-03T14:50:24;3.42;;;2.10;;
38557;SDS011;24333;42.626;23.308;2023-04-03T14:52:52;7.80;;;3.70;;
38557;SDS011;24333;42.626;23.308;2023-04-03T14:55:21;2.47;;;1.85;;
38557;SDS011;24333;42.626;23.308;2023-04-03T14:57:48;4.03;;;2.15;;
38557;SDS011;24333;42.626;23.308;2023-04-03T15:00:14;2.38;;;1.77;;
38557;SDS011;24333;42.626;23.308;2023-04-03T15:02:41;2.58;;;1.40;;
38557;SDS011;24333;42.626;23.308;2023-04-03T15:05:08;2.38;;;1.60;;
38557;SDS011;24333;42.626;23.308;2023-04-03T15:07:48;3.35;;;2.17;;
38557;SDS011;24333;42.626;23.308;2023-04-03T15:10:29;2.72;;;1.45;;
38557;SDS011;24333;42.626;23.308;2023-04-03T15:12:56;1.50;;;1.30;;
38557;SDS011;24333;42.626;23.308;2023-04-03T15:15:22;2.30;;;1.02;;
38557;SDS011;24333;42.626;23.308;2023-04-03T15:23:58;1.43;;;1.10;;
38557;SDS011;24333;42.626;23.308;2023-04-03T15:26:27;1.10;;;1.00;;
38557;SDS011;24333;42.626;23.308;2023-04-03T15:28:53;2.08;;;1.33;;
38557;SDS011;24333;42.626;23.308;2023-04-03T15:31:21;1.85;;;1.35;;
38557;SDS011;24333;42.626;23.308;2023-04-03T15:33:47;1.58;;;1.20;;
38557;SDS011;24333;42.626;23.308;2023-04-03T15:38:55;1.52;;;1.00;;
38557;SDS011;24333;42.626;23.308;2023-04-03T15:41:20;1.73;;;1.38;;
38557;SDS011;24333;42.626;23.308;2023-04-03T15:43:46;4.35;;;2.10;;
38557;SDS011;24333;42.626;23.308;2023-04-03T15:46:11;2.95;;;2.10;;
38557;SDS011;24333;42.626;23.308;2023-04-03T15:54:41;3.30;;;1.83;;
38557;SDS011;24333;42.626;23.308;2023-04-03T15:57:07;3.25;;;1.73;;
38557;SDS011;24333;42.626;23.308;2023-04-03T15:59:32;2.45;;;1.65;;
38557;SDS011;24333;42.626;23.308;2023-04-03T16:01:58;3.28;;;2.00;;
38557;SDS011;24333;42.626;23.308;2023-04-03T16:04:26;2.33;;;1.60;;
38557;SDS011;24333;42.626;23.308;2023-04-03T18:13:11;14.50;;;5.47;;
38557;SDS011;24333;42.626;23.308;2023-04-03T18:15:38;9.70;;;3.97;;
38557;SDS011;24333;42.626;23.308;2023-04-03T18:18:12;4.57;;;1.95;;
38557;SDS011;24333;42.626;23.308;2023-04-03T18:20:39;5.13;;;2.13;;
38557;SDS011;24333;42.626;23.308;2023-04-03T18:23:09;1.83;;;1.00;;
38557;SDS011;24333;42.626;23.308;2023-04-03T18:25:35;6.10;;;2.35;;
38557;SDS011;24333;42.626;23.308;2023-04-03T18:28:01;2.83;;;1.10;;
38557;SDS011;24333;42.626;23.308;2023-04-03T18:37:08;2.03;;;1.35;;
38557;SDS011;24333;42.626;23.308;2023-04-03T18:39:34;7.13;;;1.10;;
38557;SDS011;24333;42.626;23.308;2023-04-03T18:42:03;1.70;;;1.15;;
38557;SDS011;24333;42.626;23.308;2023-04-03T18:44:32;3.90;;;1.40;;
38557;SDS011;24333;42.626;23.308;2023-04-03T18:47:00;4.00;;;1.92;;
38557;SDS011;24333;42.626;23.308;2023-04-03T18:49:29;3.78;;;1.48;;
38557;SDS011;24333;42.626;23.308;2023-04-03T18:51:58;3.75;;;0.90;;
38557;SDS011;24333;42.626;23.308;2023-04-03T18:54:23;2.15;;;1.08;;
38557;SDS011;24333;42.626;23.308;2023-04-03T18:56:50;2.25;;;1.00;;
38557;SDS011;24333;42.626;23.308;2023-04-03T18:59:16;3.95;;;1.25;;
38557;SDS011;24333;42.626;23.308;2023-04-03T19:01:41;4.38;;;1.20;;
38557;SDS011;24333;42.626;23.308;2023-04-03T19:04:07;2.67;;;0.98;;
38557;SDS011;24333;42.626;23.308;2023-04-03T19:06:33;2.55;;;1.50;;
38557;SDS011;24333;42.626;23.308;2023-04-03T19:09:01;4.03;;;1.17;;
38557;SDS011;24333;42.626;23.308;2023-04-03T19:11:28;4.30;;;1.30;;
38557;SDS011;24333;42.626;23.308;2023-04-03T19:13:54;1.95;;;0.65;;
38557;SDS011;24333;42.626;23.308;2023-04-03T19:16:23;0.60;;;0.55;;
38557;SDS011;24333;42.626;23.308;2023-04-03T19:18:48;7.95;;;3.63;;
38557;SDS011;24333;42.626;23.308;2023-04-03T19:21:14;2.78;;;1.50;;
38557;SDS011;24333;42.626;23.308;2023-04-03T19:23:40;1.40;;;1.10;;
38557;SDS011;24333;42.626;23.308;2023-04-03T19:26:08;9.90;;;4.22;;
38557;SDS011;24333;42.626;23.308;2023-04-03T19:28:35;1.88;;;0.80;;
38557;SDS011;24333;42.626;23.308;2023-04-03T19:31:12;1.95;;;1.02;;
38557;SDS011;24333;42.626;23.308;2023-04-03T19:33:42;1.85;;;1.00;;
38557;SDS011;24333;42.626;23.308;2023-04-03T19:36:09;1.05;;;0.93;;
38557;SDS011;24333;42.626;23.308;2023-04-03T19:38:36;1.15;;;0.93;;
38557;SDS011;24333;42.626;23.308;2023-04-03T19:41:05;4.13;;;1.38;;
38557;SDS011;24333;42.626;23.308;2023-04-03T19:43:34;3.08;;;1.20;;
38557;SDS011;24333;42.626;23.308;2023-04-03T19:45:59;3.63;;;1.27;;
38557;SDS011;24333;42.626;23.308;2023-04-03T19:48:25;3.15;;;1.30;;
38557;SDS011;24333;42.626;23.308;2023-04-03T19:53:27;3.30;;;1.42;;
38557;SDS011;24333;42.626;23.308;2023-04-03T19:55:55;5.95;;;1.17;;
38557;SDS011;24333;42.626;23.308;2023-04-03T20:24:13;2.60;;;1.60;;
38557;SDS011;24333;42.626;23.308;2023-04-03T20:26:50;1.08;;;0.82;;
38557;SDS011;24333;42.626;23.308;2023-04-03T20:29:17;0.88;;;0.65;;
38557;SDS011;24333;42.626;23.308;2023-04-03T20:31:43;2.35;;;1.30;;
38557;SDS011;24333;42.626;23.308;2023-04-03T20:41:56;5.65;;;1.85;;
38557;SDS011;24333;42.626;23.308;2023-04-03T20:44:21;2.75;;;1.60;;
38557;SDS011;24333;42.626;23.308;2023-04-03T20:46:48;15.68;;;6.13;;
38557;SDS011;24333;42.626;23.308;2023-04-03T20:49:19;5.45;;;2.63;;
38557;SDS011;24333;42.626;23.308;2023-04-03T20:51:46;2.47;;;1.20;;
38557;SDS011;24333;42.626;23.308;2023-04-03T21:27:49;4.72;;;1.50;;
38557;SDS011;24333;42.626;23.308;2023-04-03T21:30:16;6.13;;;1.58;;
38557;SDS011;24333;42.626;23.308;2023-04-03T21:32:42;4.63;;;1.40;;
38557;SDS011;24333;42.626;23.308;2023-04-03T21:35:08;3.70;;;1.85;;
38557;SDS011;24333;42.626;23.308;2023-04-03T21:37:34;1.77;;;1.17;;
38557;SDS011;24333;42.626;23.308;2023-04-03T21:58:34;5.25;;;3.00;;
38557;SDS011;24333;42.626;23.308;2023-04-03T22:01:10;2.95;;;1.20;;
38557;SDS011;24333;42.626;23.308;2023-04-03T22:03:38;1.05;;;0.60;;
38557;SDS011;24333;42.626;23.308;2023-04-03T22:11:15;0.75;;;0.60;;
38557;SDS011;24333;42.626;23.308;2023-04-03T22:13:41;1.25;;;0.70;;
38557;SDS011;24333;42.626;23.308;2023-04-03T22:16:08;2.30;;;1.00;;
38557;SDS011;24333;42.626;23.308;2023-04-03T22:18:36;1.08;;;0.95;;
38557;SDS011;24333;42.626;23.308;2023-04-03T22:21:02;0.50;;;0.50;;
38557;SDS011;24333;42.626;23.308;2023-04-03T22:23:29;1.63;;;0.52;;
38557;SDS011;24333;42.626;23.308;2023-04-03T22:32:18;1.95;;;0.73;;
38557;SDS011;24333;42.626;23.308;2023-04-03T22:35:43;1.10;;;0.70;;
38557;SDS011;24333;42.626;23.308;2023-04-03T22:38:10;6.05;;;0.85;;
38557;SDS011;24333;42.626;23.308;2023-04-03T22:40:46;0.60;;;0.50;;
